sensor_id;sensor_type;location;lat;lon;timestamp;P1;durP1;ratioP1;P2;durP2;ratioP2
24273;SDS011;12392;42.678;23.380;2024-02-23T03:41:58;15.98;;;11.00;;
24273;SDS011;12392;42.678;23.380;2024-02-23T03:44:23;18.65;;;11.52;;
24273;SDS011;12392;42.678;23.380;2024-02-23T03:46:49;16.92;;;11.15;;
24273;SDS011;12392;42.678;23.380;2024-02-23T03:49:15;16.85;;;11.20;;
24273;SDS011;12392;42.678;23.380;2024-02-23T03:51:40;21.88;;;14.77;;
24273;SDS011;12392;42.678;23.380;2024-02-23T03:54:06;22.63;;;16.05;;
24273;SDS011;12392;42.678;23.380;2024-02-23T03:56:41;18.77;;;10.30;;
24273;SDS011;12392;42.678;23.380;2024-02-23T03:59:07;15.32;;;10.27;;
24273;SDS011;12392;42.678;23.380;2024-02-23T04:01:35;21.90;;;10.07;;
24273;SDS011;12392;42.678;23.380;2024-02-23T04:04:01;19.27;;;10.07;;
24273;SDS011;12392;42.678;23.380;2024-02-23T04:06:27;15.23;;;10.88;;
24273;SDS011;12392;42.678;23.380;2024-02-23T04:08:53;18.52;;;9.75;;
24273;SDS011;12392;42.678;23.380;2024-02-23T04:11:19;17.80;;;10.63;;
24273;SDS011;12392;42.678;23.380;2024-02-23T04:13:45;18.08;;;11.63;;
24273;SDS011;12392;42.678;23.380;2024-02-23T04:16:10;16.83;;;9.70;;
24273;SDS011;12392;42.678;23.380;2024-02-23T04:18:36;15.35;;;11.07;;
24273;SDS011;12392;42.678;23.380;2024-02-23T04:21:02;16.17;;;9.43;;
24273;SDS011;12392;42.678;23.380;2024-02-23T04:23:27;19.38;;;10.25;;
24273;SDS011;12392;42.678;23.380;2024-02-23T04:25:53;20.90;;;9.07;;
24273;SDS011;12392;42.678;23.380;2024-02-23T04:28:19;14.45;;;9.13;;
24273;SDS011;12392;42.678;23.380;2024-02-23T04:30:45;13.75;;;8.38;;
24273;SDS011;12392;42.678;23.380;2024-02-23T04:33:11;16.10;;;9.73;;
24273;SDS011;12392;42.678;23.380;2024-02-23T04:35:36;15.55;;;9.52;;
24273;SDS011;12392;42.678;23.380;2024-02-23T04:38:03;14.48;;;9.80;;
24273;SDS011;12392;42.678;23.380;2024-02-23T04:40:28;15.70;;;10.02;;
24273;SDS011;12392;42.678;23.380;2024-02-23T04:42:54;13.25;;;8.40;;
24273;SDS011;12392;42.678;23.380;2024-02-23T04:45:20;14.65;;;8.93;;
24273;SDS011;12392;42.678;23.380;2024-02-23T04:47:45;20.48;;;9.30;;
24273;SDS011;12392;42.678;23.380;2024-02-23T04:50:13;19.35;;;10.02;;
24273;SDS011;12392;42.678;23.380;2024-02-23T04:52:39;16.20;;;9.00;;
24273;SDS011;12392;42.678;23.380;2024-02-23T04:55:04;13.73;;;8.02;;
24273;SDS011;12392;42.678;23.380;2024-02-23T04:57:31;14.05;;;8.90;;
24273;SDS011;12392;42.678;23.380;2024-02-23T04:59:57;18.35;;;8.93;;
24273;SDS011;12392;42.678;23.380;2024-02-23T05:02:22;17.10;;;8.90;;
24273;SDS011;12392;42.678;23.380;2024-02-23T05:04:48;18.90;;;9.73;;
24273;SDS011;12392;42.678;23.380;2024-02-23T05:07:14;16.33;;;9.35;;
24273;SDS011;12392;42.678;23.380;2024-02-23T05:09:39;15.05;;;9.38;;
24273;SDS011;12392;42.678;23.380;2024-02-23T05:12:06;20.27;;;9.73;;
24273;SDS011;12392;42.678;23.380;2024-02-23T05:14:33;14.63;;;9.68;;
24273;SDS011;12392;42.678;23.380;2024-02-23T05:16:58;14.95;;;8.65;;
24273;SDS011;12392;42.678;23.380;2024-02-23T05:19:24;13.10;;;8.50;;
24273;SDS011;12392;42.678;23.380;2024-02-23T05:21:50;18.63;;;10.60;;
24273;SDS011;12392;42.678;23.380;2024-02-23T05:24:15;17.35;;;10.20;;
24273;SDS011;12392;42.678;23.380;2024-02-23T05:26:41;18.33;;;10.07;;
24273;SDS011;12392;42.678;23.380;2024-02-23T05:29:09;15.45;;;9.73;;
24273;SDS011;12392;42.678;23.380;2024-02-23T05:31:44;25.05;;;13.82;;
24273;SDS011;12392;42.678;23.380;2024-02-23T05:34:29;85.13;;;18.63;;
24273;SDS011;12392;42.678;23.380;2024-02-23T05:36:55;32.63;;;17.30;;
24273;SDS011;12392;42.678;23.380;2024-02-23T05:39:21;27.92;;;14.05;;
24273;SDS011;12392;42.678;23.380;2024-02-23T05:41:47;53.45;;;22.05;;
24273;SDS011;12392;42.678;23.380;2024-02-23T05:44:12;38.05;;;19.55;;
24273;SDS011;12392;42.678;23.380;2024-02-23T05:46:38;31.13;;;19.45;;
24273;SDS011;12392;42.678;23.380;2024-02-23T05:49:04;28.33;;;18.30;;
24273;SDS011;12392;42.678;23.380;2024-02-23T05:51:29;24.88;;;14.45;;
24273;SDS011;12392;42.678;23.380;2024-02-23T05:53:56;28.23;;;15.38;;
24273;SDS011;12392;42.678;23.380;2024-02-23T05:56:22;30.35;;;15.15;;
24273;SDS011;12392;42.678;23.380;2024-02-23T05:58:51;27.05;;;13.35;;
24273;SDS011;12392;42.678;23.380;2024-02-23T06:01:17;26.63;;;16.80;;
24273;SDS011;12392;42.678;23.380;2024-02-23T06:03:43;26.23;;;14.20;;
24273;SDS011;12392;42.678;23.380;2024-02-23T06:06:10;27.08;;;14.27;;
24273;SDS011;12392;42.678;23.380;2024-02-23T06:08:36;20.63;;;12.85;;
24273;SDS011;12392;42.678;23.380;2024-02-23T06:11:01;24.40;;;14.65;;
24273;SDS011;12392;42.678;23.380;2024-02-23T06:13:29;30.17;;;16.33;;
24273;SDS011;12392;42.678;23.380;2024-02-23T06:15:55;27.95;;;13.25;;
24273;SDS011;12392;42.678;23.380;2024-02-23T06:18:20;26.80;;;13.70;;
24273;SDS011;12392;42.678;23.380;2024-02-23T06:20:46;18.48;;;10.88;;
24273;SDS011;12392;42.678;23.380;2024-02-23T06:23:13;24.73;;;12.80;;
24273;SDS011;12392;42.678;23.380;2024-02-23T06:25:38;22.70;;;12.38;;
24273;SDS011;12392;42.678;23.380;2024-02-23T06:28:04;18.60;;;11.90;;
24273;SDS011;12392;42.678;23.380;2024-02-23T06:30:31;19.70;;;13.95;;
24273;SDS011;12392;42.678;23.380;2024-02-23T06:32:57;19.95;;;13.00;;
24273;SDS011;12392;42.678;23.380;2024-02-23T06:35:23;25.52;;;11.75;;
24273;SDS011;12392;42.678;23.380;2024-02-23T06:37:48;22.85;;;11.93;;
24273;SDS011;12392;42.678;23.380;2024-02-23T06:40:14;20.88;;;11.15;;
24273;SDS011;12392;42.678;23.380;2024-02-23T06:42:40;18.50;;;11.38;;
24273;SDS011;12392;42.678;23.380;2024-02-23T06:45:06;19.02;;;11.98;;
24273;SDS011;12392;42.678;23.380;2024-02-23T06:47:32;19.63;;;12.50;;
24273;SDS011;12392;42.678;23.380;2024-02-23T06:49:58;23.70;;;13.48;;
24273;SDS011;12392;42.678;23.380;2024-02-23T06:52:24;24.65;;;12.75;;
24273;SDS011;12392;42.678;23.380;2024-02-23T06:54:51;18.02;;;12.07;;
24273;SDS011;12392;42.678;23.380;2024-02-23T06:57:17;21.75;;;12.85;;
24273;SDS011;12392;42.678;23.380;2024-02-23T06:59:43;21.95;;;13.10;;
24273;SDS011;12392;42.678;23.380;2024-02-23T07:02:08;24.27;;;13.60;;
24273;SDS011;12392;42.678;23.380;2024-02-23T07:04:34;17.65;;;12.00;;
24273;SDS011;12392;42.678;23.380;2024-02-23T07:07:00;20.23;;;13.05;;
24273;SDS011;12392;42.678;23.380;2024-02-23T07:09:32;26.05;;;13.65;;
24273;SDS011;12392;42.678;23.380;2024-02-23T07:11:58;26.83;;;15.40;;
24273;SDS011;12392;42.678;23.380;2024-02-23T07:14:23;24.92;;;13.15;;
24273;SDS011;12392;42.678;23.380;2024-02-23T07:16:50;19.02;;;12.73;;
24273;SDS011;12392;42.678;23.380;2024-02-23T07:19:17;22.92;;;12.73;;
24273;SDS011;12392;42.678;23.380;2024-02-23T07:21:43;21.15;;;12.93;;
24273;SDS011;12392;42.678;23.380;2024-02-23T07:24:08;31.33;;;16.13;;
24273;SDS011;12392;42.678;23.380;2024-02-23T07:26:34;81.10;;;18.23;;
24273;SDS011;12392;42.678;23.380;2024-02-23T07:29:00;19.63;;;12.43;;
24273;SDS011;12392;42.678;23.380;2024-02-23T07:31:25;17.40;;;11.98;;
24273;SDS011;12392;42.678;23.380;2024-02-23T07:33:51;19.02;;;12.13;;
24273;SDS011;12392;42.678;23.380;2024-02-23T07:36:17;14.75;;;10.07;;
24273;SDS011;12392;42.678;23.380;2024-02-23T07:38:43;17.10;;;10.88;;
24273;SDS011;12392;42.678;23.380;2024-02-23T07:41:09;14.68;;;10.65;;
24273;SDS011;12392;42.678;23.380;2024-02-23T07:43:36;16.08;;;10.50;;
24273;SDS011;12392;42.678;23.380;2024-02-23T07:46:01;14.18;;;10.38;;
24273;SDS011;12392;42.678;23.380;2024-02-23T07:48:27;14.23;;;10.07;;
24273;SDS011;12392;42.678;23.380;2024-02-23T07:50:53;17.42;;;9.25;;
24273;SDS011;12392;42.678;23.380;2024-02-23T07:53:19;12.75;;;8.93;;
24273;SDS011;12392;42.678;23.380;2024-02-23T07:55:45;16.17;;;10.85;;
24273;SDS011;12392;42.678;23.380;2024-02-23T07:58:10;18.70;;;11.73;;
24273;SDS011;12392;42.678;23.380;2024-02-23T08:00:37;12.20;;;8.77;;
24273;SDS011;12392;42.678;23.380;2024-02-23T08:03:03;14.13;;;8.98;;
24273;SDS011;12392;42.678;23.380;2024-02-23T08:05:29;12.90;;;9.13;;
24273;SDS011;12392;42.678;23.380;2024-02-23T08:07:56;14.48;;;10.10;;
24273;SDS011;12392;42.678;23.380;2024-02-23T08:10:21;16.42;;;10.52;;
24273;SDS011;12392;42.678;23.380;2024-02-23T08:12:47;16.85;;;10.88;;
24273;SDS011;12392;42.678;23.380;2024-02-23T08:15:13;17.00;;;11.55;;
24273;SDS011;12392;42.678;23.380;2024-02-23T08:17:38;16.60;;;11.05;;
24273;SDS011;12392;42.678;23.380;2024-02-23T08:20:04;15.88;;;10.95;;
24273;SDS011;12392;42.678;23.380;2024-02-23T08:22:30;18.42;;;10.40;;
24273;SDS011;12392;42.678;23.380;2024-02-23T08:24:56;17.92;;;10.68;;
24273;SDS011;12392;42.678;23.380;2024-02-23T08:27:22;29.10;;;14.07;;
24273;SDS011;12392;42.678;23.380;2024-02-23T08:29:47;37.85;;;18.63;;
24273;SDS011;12392;42.678;23.380;2024-02-23T08:32:13;43.17;;;22.02;;
24273;SDS011;12392;42.678;23.380;2024-02-23T08:34:39;32.55;;;16.70;;
24273;SDS011;12392;42.678;23.380;2024-02-23T08:37:05;37.67;;;17.90;;
24273;SDS011;12392;42.678;23.380;2024-02-23T08:39:30;40.67;;;19.05;;
24273;SDS011;12392;42.678;23.380;2024-02-23T08:41:56;24.25;;;13.23;;
24273;SDS011;12392;42.678;23.380;2024-02-23T08:44:22;16.80;;;8.82;;
24273;SDS011;12392;42.678;23.380;2024-02-23T08:46:48;14.73;;;9.60;;
24273;SDS011;12392;42.678;23.380;2024-02-23T08:49:14;14.57;;;9.70;;
24273;SDS011;12392;42.678;23.380;2024-02-23T08:51:39;104.80;;;12.35;;
24273;SDS011;12392;42.678;23.380;2024-02-23T08:54:05;12.93;;;9.15;;
24273;SDS011;12392;42.678;23.380;2024-02-23T08:56:36;20.00;;;11.43;;
24273;SDS011;12392;42.678;23.380;2024-02-23T08:59:03;14.75;;;9.75;;
24273;SDS011;12392;42.678;23.380;2024-02-23T09:01:29;15.13;;;9.20;;
24273;SDS011;12392;42.678;23.380;2024-02-23T09:03:54;13.00;;;8.63;;
24273;SDS011;12392;42.678;23.380;2024-02-23T09:06:20;19.60;;;8.85;;
24273;SDS011;12392;42.678;23.380;2024-02-23T09:08:46;13.75;;;9.02;;
24273;SDS011;12392;42.678;23.380;2024-02-23T09:11:11;15.20;;;8.52;;
24273;SDS011;12392;42.678;23.380;2024-02-23T09:13:40;13.30;;;8.32;;
24273;SDS011;12392;42.678;23.380;2024-02-23T09:16:07;12.35;;;8.57;;
24273;SDS011;12392;42.678;23.380;2024-02-23T09:18:33;14.57;;;8.27;;
24273;SDS011;12392;42.678;23.380;2024-02-23T09:20:59;11.25;;;7.53;;
24273;SDS011;12392;42.678;23.380;2024-02-23T09:23:25;13.80;;;8.65;;
24273;SDS011;12392;42.678;23.380;2024-02-23T09:25:51;11.30;;;7.93;;
24273;SDS011;12392;42.678;23.380;2024-02-23T09:28:17;11.30;;;6.88;;
24273;SDS011;12392;42.678;23.380;2024-02-23T09:30:42;13.10;;;7.15;;
24273;SDS011;12392;42.678;23.380;2024-02-23T09:33:08;47.05;;;6.90;;
24273;SDS011;12392;42.678;23.380;2024-02-23T09:35:34;9.82;;;6.40;;
24273;SDS011;12392;42.678;23.380;2024-02-23T09:37:59;10.63;;;7.68;;
24273;SDS011;12392;42.678;23.380;2024-02-23T09:40:25;9.70;;;6.65;;
24273;SDS011;12392;42.678;23.380;2024-02-23T09:42:55;7.93;;;6.03;;
24273;SDS011;12392;42.678;23.380;2024-02-23T09:45:22;8.57;;;6.32;;
24273;SDS011;12392;42.678;23.380;2024-02-23T09:47:49;9.23;;;5.35;;
24273;SDS011;12392;42.678;23.380;2024-02-23T09:50:15;6.90;;;5.22;;
24273;SDS011;12392;42.678;23.380;2024-02-23T09:52:44;5.50;;;3.47;;
24273;SDS011;12392;42.678;23.380;2024-02-23T09:55:11;6.20;;;4.28;;
24273;SDS011;12392;42.678;23.380;2024-02-23T09:57:36;5.25;;;3.83;;
24273;SDS011;12392;42.678;23.380;2024-02-23T10:00:03;6.72;;;4.38;;
24273;SDS011;12392;42.678;23.380;2024-02-23T10:02:31;4.47;;;3.33;;
24273;SDS011;12392;42.678;23.380;2024-02-23T10:04:59;4.13;;;3.47;;
24273;SDS011;12392;42.678;23.380;2024-02-23T10:07:27;60.47;;;5.72;;
24273;SDS011;12392;42.678;23.380;2024-02-23T10:09:53;5.60;;;3.63;;
24273;SDS011;12392;42.678;23.380;2024-02-23T10:12:20;5.93;;;3.20;;
24273;SDS011;12392;42.678;23.380;2024-02-23T10:14:46;3.88;;;3.00;;
24273;SDS011;12392;42.678;23.380;2024-02-23T10:17:11;4.88;;;2.80;;
24273;SDS011;12392;42.678;23.380;2024-02-23T10:19:37;4.88;;;3.28;;
24273;SDS011;12392;42.678;23.380;2024-02-23T10:22:03;3.75;;;2.75;;
24273;SDS011;12392;42.678;23.380;2024-02-23T10:24:29;4.70;;;3.40;;
24273;SDS011;12392;42.678;23.380;2024-02-23T10:26:55;4.13;;;3.05;;
24273;SDS011;12392;42.678;23.380;2024-02-23T10:29:21;4.45;;;3.40;;
24273;SDS011;12392;42.678;23.380;2024-02-23T10:31:47;3.17;;;2.88;;
24273;SDS011;12392;42.678;23.380;2024-02-23T10:34:14;6.28;;;3.03;;
24273;SDS011;12392;42.678;23.380;2024-02-23T10:36:43;3.08;;;2.75;;
24273;SDS011;12392;42.678;23.380;2024-02-23T10:39:10;3.85;;;2.45;;
24273;SDS011;12392;42.678;23.380;2024-02-23T10:41:37;3.10;;;2.53;;
24273;SDS011;12392;42.678;23.380;2024-02-23T10:44:05;4.78;;;3.00;;
24273;SDS011;12392;42.678;23.380;2024-02-23T10:46:31;8.15;;;3.22;;
24273;SDS011;12392;42.678;23.380;2024-02-23T10:48:58;5.13;;;2.47;;
24273;SDS011;12392;42.678;23.380;2024-02-23T10:51:24;4.10;;;2.60;;
24273;SDS011;12392;42.678;23.380;2024-02-23T10:53:50;4.78;;;2.80;;
24273;SDS011;12392;42.678;23.380;2024-02-23T10:56:18;4.35;;;2.42;;
24273;SDS011;12392;42.678;23.380;2024-02-23T10:58:44;4.25;;;3.20;;
24273;SDS011;12392;42.678;23.380;2024-02-23T11:01:10;3.95;;;2.53;;
24273;SDS011;12392;42.678;23.380;2024-02-23T11:03:38;4.05;;;2.53;;
24273;SDS011;12392;42.678;23.380;2024-02-23T11:06:06;5.78;;;2.38;;
24273;SDS011;12392;42.678;23.380;2024-02-23T11:08:33;4.03;;;2.53;;
24273;SDS011;12392;42.678;23.380;2024-02-23T11:11:06;4.43;;;2.70;;
24273;SDS011;12392;42.678;23.380;2024-02-23T11:13:36;3.95;;;2.80;;
24273;SDS011;12392;42.678;23.380;2024-02-23T11:16:03;2.53;;;2.20;;
24273;SDS011;12392;42.678;23.380;2024-02-23T11:18:39;4.28;;;2.38;;
24273;SDS011;12392;42.678;23.380;2024-02-23T11:21:05;3.72;;;2.13;;
24273;SDS011;12392;42.678;23.380;2024-02-23T11:23:43;3.00;;;1.92;;
24273;SDS011;12392;42.678;23.380;2024-02-23T11:26:17;2.38;;;2.00;;
24273;SDS011;12392;42.678;23.380;2024-02-23T11:28:52;3.13;;;1.80;;
24273;SDS011;12392;42.678;23.380;2024-02-23T11:31:19;4.45;;;2.00;;
24273;SDS011;12392;42.678;23.380;2024-02-23T11:33:52;2.25;;;2.05;;
24273;SDS011;12392;42.678;23.380;2024-02-23T11:36:28;5.43;;;1.80;;
24273;SDS011;12392;42.678;23.380;2024-02-23T11:38:56;2.08;;;1.80;;
24273;SDS011;12392;42.678;23.380;2024-02-23T11:41:22;1.88;;;1.60;;
24273;SDS011;12392;42.678;23.380;2024-02-23T11:43:49;2.83;;;1.70;;
24273;SDS011;12392;42.678;23.380;2024-02-23T11:46:16;2.75;;;2.25;;
24273;SDS011;12392;42.678;23.380;2024-02-23T11:48:42;4.13;;;2.03;;
24273;SDS011;12392;42.678;23.380;2024-02-23T11:51:08;2.10;;;1.60;;
24273;SDS011;12392;42.678;23.380;2024-02-23T11:53:36;2.85;;;1.95;;
24273;SDS011;12392;42.678;23.380;2024-02-23T11:56:04;6.85;;;1.80;;
24273;SDS011;12392;42.678;23.380;2024-02-23T11:58:30;2.15;;;1.35;;
24273;SDS011;12392;42.678;23.380;2024-02-23T12:00:56;1.52;;;1.42;;
24273;SDS011;12392;42.678;23.380;2024-02-23T12:03:22;2.30;;;1.73;;
24273;SDS011;12392;42.678;23.380;2024-02-23T12:05:50;2.75;;;1.60;;
24273;SDS011;12392;42.678;23.380;2024-02-23T12:08:16;2.85;;;1.90;;
24273;SDS011;12392;42.678;23.380;2024-02-23T12:10:42;4.15;;;2.13;;
24273;SDS011;12392;42.678;23.380;2024-02-23T12:13:08;4.70;;;2.33;;
24273;SDS011;12392;42.678;23.380;2024-02-23T12:15:33;4.25;;;1.90;;
24273;SDS011;12392;42.678;23.380;2024-02-23T12:17:59;3.40;;;2.10;;
24273;SDS011;12392;42.678;23.380;2024-02-23T12:20:27;2.58;;;1.70;;
24273;SDS011;12392;42.678;23.380;2024-02-23T12:22:56;3.65;;;2.00;;
24273;SDS011;12392;42.678;23.380;2024-02-23T12:25:22;2.35;;;1.60;;
24273;SDS011;12392;42.678;23.380;2024-02-23T12:27:53;4.22;;;1.58;;
24273;SDS011;12392;42.678;23.380;2024-02-23T12:30:19;5.30;;;1.90;;
24273;SDS011;12392;42.678;23.380;2024-02-23T12:32:45;6.70;;;2.60;;
24273;SDS011;12392;42.678;23.380;2024-02-23T12:35:11;1.92;;;1.50;;
24273;SDS011;12392;42.678;23.380;2024-02-23T12:37:37;1.35;;;1.25;;
24273;SDS011;12392;42.678;23.380;2024-02-23T12:40:03;1.90;;;1.27;;
24273;SDS011;12392;42.678;23.380;2024-02-23T12:42:29;2.65;;;1.90;;
24273;SDS011;12392;42.678;23.380;2024-02-23T12:44:54;2.78;;;1.38;;
24273;SDS011;12392;42.678;23.380;2024-02-23T12:47:20;1.52;;;1.38;;
24273;SDS011;12392;42.678;23.380;2024-02-23T12:49:46;1.92;;;1.70;;
24273;SDS011;12392;42.678;23.380;2024-02-23T12:52:12;2.70;;;1.45;;
24273;SDS011;12392;42.678;23.380;2024-02-23T12:54:37;8.35;;;1.60;;
24273;SDS011;12392;42.678;23.380;2024-02-23T12:57:03;2.60;;;1.38;;
24273;SDS011;12392;42.678;23.380;2024-02-23T12:59:29;3.03;;;1.27;;
24273;SDS011;12392;42.678;23.380;2024-02-23T13:01:54;5.13;;;1.58;;
24273;SDS011;12392;42.678;23.380;2024-02-23T13:04:20;3.90;;;1.30;;
24273;SDS011;12392;42.678;23.380;2024-02-23T13:06:46;2.78;;;1.30;;
24273;SDS011;12392;42.678;23.380;2024-02-23T13:09:12;4.63;;;1.40;;
24273;SDS011;12392;42.678;23.380;2024-02-23T13:11:39;4.15;;;1.00;;
24273;SDS011;12392;42.678;23.380;2024-02-23T13:14:05;1.67;;;1.55;;
24273;SDS011;12392;42.678;23.380;2024-02-23T13:16:31;1.92;;;1.38;;
24273;SDS011;12392;42.678;23.380;2024-02-23T13:18:57;6.47;;;1.40;;
24273;SDS011;12392;42.678;23.380;2024-02-23T13:21:22;1.00;;;1.00;;
24273;SDS011;12392;42.678;23.380;2024-02-23T13:23:49;3.33;;;2.15;;
24273;SDS011;12392;42.678;23.380;2024-02-23T13:26:15;1.80;;;1.50;;
24273;SDS011;12392;42.678;23.380;2024-02-23T13:28:43;2.80;;;1.35;;
24273;SDS011;12392;42.678;23.380;2024-02-23T13:31:09;1.70;;;1.20;;
24273;SDS011;12392;42.678;23.380;2024-02-23T13:33:35;1.50;;;1.35;;
24273;SDS011;12392;42.678;23.380;2024-02-23T13:36:01;1.88;;;1.42;;
24273;SDS011;12392;42.678;23.380;2024-02-23T13:38:27;7.07;;;1.73;;
24273;SDS011;12392;42.678;23.380;2024-02-23T13:40:53;1.42;;;1.17;;
24273;SDS011;12392;42.678;23.380;2024-02-23T13:43:18;1.88;;;1.33;;
24273;SDS011;12392;42.678;23.380;2024-02-23T13:45:48;1.73;;;1.60;;
24273;SDS011;12392;42.678;23.380;2024-02-23T13:48:16;8.20;;;1.40;;
24273;SDS011;12392;42.678;23.380;2024-02-23T13:50:43;7.32;;;1.52;;
24273;SDS011;12392;42.678;23.380;2024-02-23T13:53:10;3.20;;;1.50;;
24273;SDS011;12392;42.678;23.380;2024-02-23T13:55:37;2.40;;;1.38;;
24273;SDS011;12392;42.678;23.380;2024-02-23T13:58:03;1.52;;;1.42;;
24273;SDS011;12392;42.678;23.380;2024-02-23T14:00:29;2.58;;;1.55;;
24273;SDS011;12392;42.678;23.380;2024-02-23T14:02:55;3.33;;;1.60;;
24273;SDS011;12392;42.678;23.380;2024-02-23T14:05:20;1.55;;;1.45;;
24273;SDS011;12392;42.678;23.380;2024-02-23T14:07:47;2.97;;;1.70;;
24273;SDS011;12392;42.678;23.380;2024-02-23T14:10:13;3.78;;;1.70;;
24273;SDS011;12392;42.678;23.380;2024-02-23T14:12:39;2.67;;;2.17;;
24273;SDS011;12392;42.678;23.380;2024-02-23T14:15:05;3.22;;;1.80;;
24273;SDS011;12392;42.678;23.380;2024-02-23T14:17:32;4.03;;;2.35;;
24273;SDS011;12392;42.678;23.380;2024-02-23T14:19:59;3.55;;;1.90;;
24273;SDS011;12392;42.678;23.380;2024-02-23T14:22:25;3.95;;;1.98;;
24273;SDS011;12392;42.678;23.380;2024-02-23T14:24:53;3.75;;;1.60;;
24273;SDS011;12392;42.678;23.380;2024-02-23T14:27:18;4.07;;;1.77;;
24273;SDS011;12392;42.678;23.380;2024-02-23T14:29:44;1.30;;;1.20;;
24273;SDS011;12392;42.678;23.380;2024-02-23T14:32:12;2.17;;;1.55;;
24273;SDS011;12392;42.678;23.380;2024-02-23T14:34:41;3.92;;;1.50;;
24273;SDS011;12392;42.678;23.380;2024-02-23T14:37:07;1.58;;;1.20;;
24273;SDS011;12392;42.678;23.380;2024-02-23T14:39:33;2.03;;;1.60;;
24273;SDS011;12392;42.678;23.380;2024-02-23T14:41:59;5.60;;;1.50;;
24273;SDS011;12392;42.678;23.380;2024-02-23T14:44:25;3.95;;;1.40;;
24273;SDS011;12392;42.678;23.380;2024-02-23T14:46:52;5.20;;;1.42;;
24273;SDS011;12392;42.678;23.380;2024-02-23T14:49:17;7.13;;;1.58;;
24273;SDS011;12392;42.678;23.380;2024-02-23T14:51:43;3.53;;;1.35;;
24273;SDS011;12392;42.678;23.380;2024-02-23T14:54:11;2.95;;;1.50;;
24273;SDS011;12392;42.678;23.380;2024-02-23T14:56:37;5.13;;;1.60;;
24273;SDS011;12392;42.678;23.380;2024-02-23T14:59:03;5.63;;;2.00;;
24273;SDS011;12392;42.678;23.380;2024-02-23T15:01:29;4.07;;;1.80;;
24273;SDS011;12392;42.678;23.380;2024-02-23T15:03:55;4.88;;;1.63;;
24273;SDS011;12392;42.678;23.380;2024-02-23T15:06:21;1.35;;;1.25;;
24273;SDS011;12392;42.678;23.380;2024-02-23T15:08:48;6.63;;;2.10;;
24273;SDS011;12392;42.678;23.380;2024-02-23T15:11:14;7.32;;;1.60;;
24273;SDS011;12392;42.678;23.380;2024-02-23T15:13:40;2.30;;;1.80;;
24273;SDS011;12392;42.678;23.380;2024-02-23T15:16:06;2.25;;;1.73;;
24273;SDS011;12392;42.678;23.380;2024-02-23T15:18:32;4.65;;;1.90;;
24273;SDS011;12392;42.678;23.380;2024-02-23T15:20:57;2.97;;;1.80;;
24273;SDS011;12392;42.678;23.380;2024-02-23T15:23:23;2.33;;;2.10;;
24273;SDS011;12392;42.678;23.380;2024-02-23T15:25:49;4.88;;;1.90;;
24273;SDS011;12392;42.678;23.380;2024-02-23T15:28:15;3.75;;;2.45;;
24273;SDS011;12392;42.678;23.380;2024-02-23T15:30:47;6.55;;;2.10;;
24273;SDS011;12392;42.678;23.380;2024-02-23T15:33:14;3.95;;;2.00;;
24273;SDS011;12392;42.678;23.380;2024-02-23T15:35:39;4.90;;;1.98;;
24273;SDS011;12392;42.678;23.380;2024-02-23T15:38:05;2.78;;;1.65;;
24273;SDS011;12392;42.678;23.380;2024-02-23T15:40:31;4.07;;;1.85;;
24273;SDS011;12392;42.678;23.380;2024-02-23T15:42:56;6.18;;;2.40;;
24273;SDS011;12392;42.678;23.380;2024-02-23T15:45:22;9.23;;;2.08;;
24273;SDS011;12392;42.678;23.380;2024-02-23T15:47:48;3.80;;;2.30;;
24273;SDS011;12392;42.678;23.380;2024-02-23T15:50:14;6.20;;;2.30;;
24273;SDS011;12392;42.678;23.380;2024-02-23T15:52:39;2.20;;;2.00;;
24273;SDS011;12392;42.678;23.380;2024-02-23T15:55:06;2.45;;;2.25;;
24273;SDS011;12392;42.678;23.380;2024-02-23T15:57:36;2.33;;;1.92;;
24273;SDS011;12392;42.678;23.380;2024-02-23T16:00:03;5.32;;;2.42;;
24273;SDS011;12392;42.678;23.380;2024-02-23T16:02:38;2.10;;;1.90;;
24273;SDS011;12392;42.678;23.380;2024-02-23T16:05:03;5.57;;;2.30;;
24273;SDS011;12392;42.678;23.380;2024-02-23T16:07:31;7.82;;;2.80;;
24273;SDS011;12392;42.678;23.380;2024-02-23T16:09:57;6.38;;;2.63;;
24273;SDS011;12392;42.678;23.380;2024-02-23T16:12:24;4.15;;;2.75;;
24273;SDS011;12392;42.678;23.380;2024-02-23T16:14:50;6.85;;;3.25;;
24273;SDS011;12392;42.678;23.380;2024-02-23T16:17:16;10.55;;;2.55;;
24273;SDS011;12392;42.678;23.380;2024-02-23T16:19:41;7.70;;;3.13;;
24273;SDS011;12392;42.678;23.380;2024-02-23T16:22:07;9.73;;;2.90;;
24273;SDS011;12392;42.678;23.380;2024-02-23T16:24:33;5.15;;;2.88;;
24273;SDS011;12392;42.678;23.380;2024-02-23T16:26:58;10.68;;;3.22;;
24273;SDS011;12392;42.678;23.380;2024-02-23T16:29:24;8.02;;;2.80;;
24273;SDS011;12392;42.678;23.380;2024-02-23T16:31:50;11.23;;;3.15;;
24273;SDS011;12392;42.678;23.380;2024-02-23T16:34:16;6.78;;;3.00;;
24273;SDS011;12392;42.678;23.380;2024-02-23T16:36:41;6.43;;;3.05;;
24273;SDS011;12392;42.678;23.380;2024-02-23T16:39:08;5.25;;;2.78;;
24273;SDS011;12392;42.678;23.380;2024-02-23T16:41:34;11.65;;;3.85;;
24273;SDS011;12392;42.678;23.380;2024-02-23T16:44:00;7.45;;;3.50;;
24273;SDS011;12392;42.678;23.380;2024-02-23T16:46:26;8.15;;;3.00;;
24273;SDS011;12392;42.678;23.380;2024-02-23T16:48:52;6.47;;;3.50;;
24273;SDS011;12392;42.678;23.380;2024-02-23T16:51:18;5.78;;;2.97;;
24273;SDS011;12392;42.678;23.380;2024-02-23T16:53:44;6.35;;;3.40;;
24273;SDS011;12392;42.678;23.380;2024-02-23T16:56:10;10.40;;;3.33;;
24273;SDS011;12392;42.678;23.380;2024-02-23T16:58:35;6.10;;;3.67;;
24273;SDS011;12392;42.678;23.380;2024-02-23T17:01:05;13.38;;;3.75;;
24273;SDS011;12392;42.678;23.380;2024-02-23T17:03:32;6.63;;;3.10;;
24273;SDS011;12392;42.678;23.380;2024-02-23T17:05:58;7.00;;;3.45;;
24273;SDS011;12392;42.678;23.380;2024-02-23T17:08:26;7.00;;;3.60;;
24273;SDS011;12392;42.678;23.380;2024-02-23T17:10:55;4.00;;;3.20;;
24273;SDS011;12392;42.678;23.380;2024-02-23T17:13:20;5.95;;;3.63;;
24273;SDS011;12392;42.678;23.380;2024-02-23T17:15:46;5.38;;;3.50;;
24273;SDS011;12392;42.678;23.380;2024-02-23T17:18:12;3.42;;;2.90;;
24273;SDS011;12392;42.678;23.380;2024-02-23T17:20:37;4.63;;;3.63;;
24273;SDS011;12392;42.678;23.380;2024-02-23T17:23:03;4.90;;;3.40;;
24273;SDS011;12392;42.678;23.380;2024-02-23T17:25:30;5.57;;;3.40;;
24273;SDS011;12392;42.678;23.380;2024-02-23T17:27:56;4.20;;;3.47;;
24273;SDS011;12392;42.678;23.380;2024-02-23T17:30:22;6.57;;;3.83;;
24273;SDS011;12392;42.678;23.380;2024-02-23T17:32:47;4.63;;;3.72;;
24273;SDS011;12392;42.678;23.380;2024-02-23T17:35:14;5.15;;;3.47;;
24273;SDS011;12392;42.678;23.380;2024-02-23T17:37:39;7.38;;;4.00;;
24273;SDS011;12392;42.678;23.380;2024-02-23T17:40:06;6.35;;;3.70;;
24273;SDS011;12392;42.678;23.380;2024-02-23T17:42:32;8.35;;;4.15;;
24273;SDS011;12392;42.678;23.380;2024-02-23T17:44:58;7.30;;;3.75;;
24273;SDS011;12392;42.678;23.380;2024-02-23T17:47:24;6.07;;;3.65;;
24273;SDS011;12392;42.678;23.380;2024-02-23T17:49:49;4.88;;;3.92;;
24273;SDS011;12392;42.678;23.380;2024-02-23T17:52:15;5.63;;;4.43;;
24273;SDS011;12392;42.678;23.380;2024-02-23T17:54:42;6.22;;;4.65;;
24273;SDS011;12392;42.678;23.380;2024-02-23T17:57:08;6.88;;;4.75;;
24273;SDS011;12392;42.678;23.380;2024-02-23T17:59:34;11.20;;;6.28;;
24273;SDS011;12392;42.678;23.380;2024-02-23T18:01:59;9.20;;;5.30;;